Time;durP1;ratioP1;P1;durP2;ratioP2;P2;SDS_P1;SDS_P2;PMS_P1;PMS_P2;Temp;Humidity;BMP_temperature;BMP_pressure;BME280_temperature;BME280_humidity;BME280_pressure;Samples;Min_cycle;Max_cycle;Signal;HPM_P1;HPM_P2
2022/06/01 00:01:04;;;;;;;8.57;7.60;;;11.90;99.90;;;;;;5011060;28;20059;-74
2022/06/01 00:03:36;;;;;;;9.80;8.25;;;11.90;99.90;;;;;;5010974;28;20114;-79
2022/06/01 00:06:02;;;;;;;10.23;8.82;;;11.90;99.90;;;;;;5021001;28;20046;-79
2022/06/01 00:08:27;;;;;;;10.10;8.25;;;11.90;99.90;;;;;;5030634;28;20037;-75
2022/06/01 00:10:54;;;;;;;10.07;8.55;;;11.90;99.90;;;;;;5028256;28;20039;-75
2022/06/01 00:13:20;;;;;;;9.38;8.40;;;11.80;99.90;;;;;;5030668;28;20025;-79
2022/06/01 00:15:46;;;;;;;10.82;9.38;;;11.70;99.90;;;;;;5029218;28;20021;-74
2022/06/01 00:18:12;;;;;;;9.82;8.93;;;11.70;99.90;;;;;;5029321;28;20018;-74
2022/06/01 00:20:38;;;;;;;11.27;8.40;;;11.70;99.90;;;;;;5024021;28;20025;-74
2022/06/01 00:23:04;;;;;;;13.57;9.52;;;11.60;99.90;;;;;;5010818;28;20018;-74
2022/06/01 00:25:30;;;;;;;9.73;8.73;;;11.60;99.90;;;;;;5010486;28;20037;-78
2022/06/01 00:27:55;;;;;;;9.52;8.65;;;11.70;99.90;;;;;;5009469;28;20098;-75
2022/06/01 00:30:22;;;;;;;10.10;9.10;;;11.70;99.90;;;;;;5010540;28;20526;-75
2022/06/01 00:32:48;;;;;;;10.02;8.27;;;11.70;99.90;;;;;;5010810;28;20397;-79
2022/06/01 00:35:16;;;;;;;9.45;8.55;;;11.70;99.90;;;;;;5010635;28;20022;-75
2022/06/01 00:37:42;;;;;;;11.20;9.20;;;11.70;99.90;;;;;;5009384;28;20018;-74
2022/06/01 00:40:09;;;;;;;11.15;9.80;;;11.70;99.90;;;;;;5010276;28;20162;-78
2022/06/01 00:42:37;;;;;;;10.45;8.98;;;11.70;99.90;;;;;;5010618;28;20030;-75
2022/06/01 00:45:04;;;;;;;10.73;9.32;;;11.70;99.90;;;;;;5010445;28;20018;-77
2022/06/01 00:47:30;;;;;;;9.10;8.20;;;11.70;99.90;;;;;;5009301;28;20421;-78
2022/06/01 00:50:04;;;;;;;11.15;9.00;;;11.70;99.90;;;;;;5010222;28;20022;-78
2022/06/01 00:52:36;;;;;;;9.18;8.27;;;11.70;99.90;;;;;;5010442;28;20117;-74
2022/06/01 00:55:07;;;;;;;9.43;8.35;;;11.70;99.90;;;;;;5010346;28;20461;-74
2022/06/01 00:57:33;;;;;;;9.80;8.77;;;11.70;99.90;;;;;;5009202;28;20421;-75
2022/06/01 01:00:06;;;;;;;10.02;9.02;;;11.80;99.90;;;;;;5010072;28;20102;-74
2022/06/01 01:02:32;;;;;;;;;;;11.80;99.90;;;;;;5009553;28;20022;-78
2022/06/01 01:04:57;;;;;;;11.00;8.57;;;11.80;99.90;;;;;;5011912;28;19992;-74
2022/06/01 01:07:26;;;;;;;11.80;9.10;;;11.80;99.90;;;;;;5029937;28;20071;-75
2022/06/01 01:09:52;;;;;;;11.95;9.35;;;11.70;99.90;;;;;;5029811;28;20381;-77
2022/06/01 01:12:18;;;;;;;11.25;8.57;;;11.70;99.90;;;;;;5029749;28;20105;-77
2022/06/01 01:14:44;;;;;;;11.00;8.93;;;11.60;99.90;;;;;;5028644;28;20057;-77
2022/06/01 01:17:11;;;;;;;10.05;9.00;;;11.70;99.90;;;;;;5029685;28;20082;-75
2022/06/01 01:19:42;;;;;;;8.88;8.07;;;11.60;99.90;;;;;;5028469;28;20394;-78
2022/06/01 01:22:20;;;;;;;9.63;8.73;;;11.60;99.90;;;;;;5013120;28;20045;-78
2022/06/01 01:25:23;;;;;;;9.43;8.27;;;11.60;99.90;;;;;;5012207;28;20142;-77
2022/06/01 01:27:51;;;;;;;10.52;9.23;;;11.70;99.90;;;;;;5011897;28;20128;-74
2022/06/01 01:30:36;;;;;;;9.48;8.25;;;11.60;99.90;;;;;;5012052;28;20517;-78
2022/06/01 01:33:08;;;;;;;10.95;8.70;;;11.70;99.90;;;;;;5013363;28;20030;-78
2022/06/01 01:35:33;;;;;;;12.27;9.73;;;11.70;99.90;;;;;;5013337;28;20101;-78
2022/06/01 01:38:02;;;;;;;10.30;9.27;;;11.70;99.90;;;;;;5013197;28;20093;-79
2022/06/01 01:40:28;;;;;;;9.77;8.85;;;11.70;99.90;;;;;;5011927;28;20536;-74
2022/06/01 01:42:55;;;;;;;11.43;9.40;;;11.70;99.90;;;;;;5012016;28;20018;-79
2022/06/01 01:45:25;;;;;;;10.02;9.02;;;11.70;99.90;;;;;;5013113;28;20022;-78
2022/06/01 01:47:52;;;;;;;10.85;9.27;;;11.70;99.90;;;;;;5012834;28;20111;-75
2022/06/01 01:50:19;;;;;;;10.57;9.15;;;11.80;99.90;;;;;;5011694;28;20372;-78
2022/06/01 01:52:45;;;;;;;10.70;9.60;;;11.70;99.90;;;;;;5011874;28;20505;-75
2022/06/01 01:55:32;;;;;;;10.55;9.40;;;11.70;99.90;;;;;;5011779;28;20502;-78
2022/06/01 01:58:20;;;;;;;10.38;9.02;;;11.50;99.90;;;;;;5012839;28;20108;-78
2022/06/01 02:00:52;;;;;;;11.68;9.55;;;11.40;99.90;;;;;;5013001;28;20029;-75
2022/06/01 02:03:22;;;;;;;10.57;9.57;;;11.40;99.90;;;;;;5011586;28;20139;-78
2022/06/01 02:06:12;;;;;;;11.88;9.45;;;11.30;99.90;;;;;;5021659;28;20036;-78
2022/06/01 02:08:39;;;;;;;13.63;10.02;;;11.30;99.90;;;;;;5032549;28;20071;-78
2022/06/01 02:13:55;;;;;;;15.52;10.98;;;11.60;99.90;;;;;;5032441;28;20498;-75
2022/06/01 02:16:24;;;;;;;14.98;9.35;;;11.70;99.90;;;;;;5032539;28;20053;-74
2022/06/01 02:18:54;;;;;;;12.38;9.90;;;11.90;99.90;;;;;;5032369;28;20022;-75
2022/06/01 02:21:25;;;;;;;17.00;10.93;;;12.00;99.90;;;;;;5019549;28;20102;-78
2022/06/01 02:23:53;;;;;;;12.63;9.18;;;12.20;99.90;;;;;;5012439;28;20026;-74
2022/06/01 02:26:20;;;;;;;11.38;8.57;;;12.40;99.90;;;;;;5012509;28;20073;-74
2022/06/01 02:28:49;;;;;;;10.27;8.30;;;12.50;99.90;;;;;;5011306;28;20044;-77
2022/06/01 02:31:17;;;;;;;11.40;8.95;;;12.60;99.90;;;;;;5011163;28;20463;-74
2022/06/01 02:33:45;;;;;;;11.98;9.38;;;12.70;99.90;;;;;;5011307;28;20025;-75
2022/06/01 02:36:14;;;;;;;11.40;9.45;;;12.70;99.90;;;;;;5012369;28;20445;-78
2022/06/01 02:38:44;;;;;;;13.43;9.10;;;12.80;99.90;;;;;;5011040;28;20443;-78
2022/06/01 02:42:25;;;;;;;9.77;8.57;;;12.80;99.90;;;;;;5012348;28;20431;-78
2022/06/01 02:43:56;;;;;;;11.63;8.50;;;12.80;99.90;;;;;;5012593;28;20030;-75
2022/06/01 02:46:22;;;;;;;11.35;9.32;;;12.80;99.90;;;;;;5012309;28;20471;-75
2022/06/01 02:48:47;;;;;;;12.55;9.88;;;12.80;99.90;;;;;;5012242;28;20065;-78
2022/06/01 02:51:15;;;;;;;12.40;9.82;;;12.70;99.90;;;;;;5012174;28;20045;-75
2022/06/01 02:53:41;;;;;;;11.93;10.43;;;12.70;99.90;;;;;;5010850;28;20044;-75
2022/06/01 02:56:07;;;;;;;12.15;9.35;;;12.70;99.90;;;;;;5012147;28;20641;-77
2022/06/01 02:58:34;;;;;;;11.80;9.00;;;12.70;99.90;;;;;;5012142;28;20507;-74
2022/06/01 03:01:00;;;;;;;14.52;10.07;;;12.70;99.90;;;;;;5012059;28;20475;-77
2022/06/01 03:03:26;;;;;;;9.63;8.63;;;12.70;99.90;;;;;;5010535;28;20022;-78
2022/06/01 03:05:52;;;;;;;11.20;9.35;;;12.70;99.90;;;;;;5020147;28;20048;-75
2022/06/01 03:08:17;;;;;;;9.70;8.70;;;12.70;99.90;;;;;;5030250;28;20026;-76
2022/06/01 03:10:44;;;;;;;10.15;8.10;;;12.70;99.90;;;;;;5031625;28;20021;-74
2022/06/01 03:13:10;;;;;;;11.35;7.43;;;12.70;99.90;;;;;;5030133;28;20032;-78
2022/06/01 03:15:37;;;;;;;9.70;8.25;;;12.70;99.90;;;;;;5031503;28;20026;-77
2022/06/01 03:18:03;;;;;;;11.35;8.68;;;12.70;99.90;;;;;;5031292;28;20025;-75
2022/06/01 03:20:29;;;;;;;9.88;7.97;;;12.70;99.90;;;;;;5025185;28;20028;-75
2022/06/01 03:22:57;;;;;;;9.13;8.23;;;12.80;99.90;;;;;;5011697;28;20018;-77
2022/06/01 03:25:23;;;;;;;11.15;7.50;;;12.70;99.90;;;;;;5010398;28;20025;-78
2022/06/01 03:27:51;;;;;;;10.10;7.45;;;12.80;99.90;;;;;;5010137;28;20038;-78
2022/06/01 03:30:18;;;;;;;8.90;6.90;;;12.80;99.90;;;;;;5010398;28;20044;-75
2022/06/01 03:32:45;;;;;;;9.00;6.35;;;12.80;99.90;;;;;;5011438;28;20044;-75
2022/06/01 03:35:12;;;;;;;7.20;6.40;;;12.80;99.90;;;;;;5011329;28;20083;-78
2022/06/01 03:37:38;;;;;;;8.10;6.45;;;12.80;99.90;;;;;;5011518;28;20146;-75
2022/06/01 03:40:05;;;;;;;6.50;5.90;;;12.70;99.90;;;;;;5009917;28;20059;-75
2022/06/01 03:42:31;;;;;;;7.28;6.55;;;12.80;99.90;;;;;;5011449;28;20029;-78
2022/06/01 03:47:42;;;;;;;8.18;5.63;;;12.80;99.90;;;;;;5011287;28;20430;-78
2022/06/01 03:50:09;;;;;;;6.35;5.72;;;12.70;99.90;;;;;;5011113;28;20026;-78
2022/06/01 03:52:34;;;;;;;9.15;5.88;;;12.80;99.90;;;;;;5010079;28;20018;-74
2022/06/01 03:55:00;;;;;;;6.53;5.85;;;12.80;99.90;;;;;;5011106;28;20083;-74
2022/06/01 03:57:26;;;;;;;6.78;5.82;;;12.80;99.90;;;;;;5010014;28;20041;-75
2022/06/01 03:59:52;;;;;;;9.02;5.80;;;12.80;99.90;;;;;;5009680;28;20368;-75
2022/06/01 04:02:18;;;;;;;6.75;5.70;;;12.90;99.90;;;;;;5009877;28;20120;-78
2022/06/01 04:04:43;;;;;;;5.47;4.97;;;12.90;99.90;;;;;;5011645;28;20022;-75
2022/06/01 04:07:09;;;;;;;5.70;5.20;;;12.90;99.90;;;;;;5030859;28;20120;-78
2022/06/01 04:09:35;;;;;;;6.32;4.90;;;12.90;99.90;;;;;;5030768;28;20078;-75
2022/06/01 04:12:01;;;;;;;5.30;4.80;;;12.90;99.90;;;;;;5029359;28;20026;-78
2022/06/01 04:14:26;;;;;;;7.53;4.78;;;13.00;99.90;;;;;;5030545;28;20471;-78
2022/06/01 04:16:52;;;;;;;6.30;4.80;;;13.00;99.90;;;;;;5029170;28;20120;-75
2022/06/01 04:19:18;;;;;;;5.28;4.53;;;13.00;99.90;;;;;;5029263;28;20478;-77
2022/06/01 04:21:47;;;;;;;5.85;4.35;;;13.10;99.90;;;;;;5013730;28;20018;-78
2022/06/01 04:24:15;;;;;;;5.38;3.50;;;13.10;99.90;;;;;;5009310;28;20047;-78
2022/06/01 04:26:41;;;;;;;5.63;3.88;;;13.10;99.90;;;;;;5009322;28;20129;-75
2022/06/01 04:29:07;;;;;;;3.85;3.45;;;13.10;99.90;;;;;;5010623;28;20530;-76
2022/06/01 04:31:33;;;;;;;4.75;3.67;;;13.10;99.90;;;;;;5010679;28;20033;-78
2022/06/01 04:33:59;;;;;;;4.22;3.78;;;13.10;99.90;;;;;;5010413;28;20015;-78
2022/06/01 04:36:25;;;;;;;4.10;3.42;;;13.10;99.90;;;;;;5010769;28;20531;-75
2022/06/01 04:38:50;;;;;;;6.28;4.20;;;13.10;99.90;;;;;;5010463;28;20372;-78
2022/06/01 04:41:17;;;;;;;4.28;3.97;;;13.10;99.90;;;;;;5010658;28;20475;-78
2022/06/01 04:43:43;;;;;;;4.63;4.22;;;13.10;99.90;;;;;;5010435;28;20022;-75
2022/06/01 04:46:08;;;;;;;4.53;4.13;;;13.10;99.90;;;;;;5009145;28;20026;-75
2022/06/01 04:48:34;;;;;;;4.72;3.97;;;13.20;99.90;;;;;;5010380;28;20476;-78
2022/06/01 04:51:01;;;;;;;7.75;5.40;;;13.20;99.90;;;;;;5009058;28;20019;-77
2022/06/01 04:53:27;;;;;;;6.82;4.85;;;13.20;99.90;;;;;;5010437;28;20655;-78
2022/06/01 04:55:53;;;;;;;5.68;5.03;;;13.30;99.90;;;;;;5008806;28;20053;-75
2022/06/01 04:58:18;;;;;;;5.22;4.72;;;13.30;99.90;;;;;;5013354;28;20026;-74
2022/06/01 05:00:45;;;;;;;7.25;5.35;;;13.30;99.90;;;;;;5013857;28;20107;-75
2022/06/01 05:03:11;;;;;;;6.05;5.40;;;13.30;99.90;;;;;;5013772;28;20021;-75
2022/06/01 05:05:39;;;;;;;6.35;5.68;;;13.30;99.90;;;;;;5022012;28;20032;-74
2022/06/01 05:08:06;;;;;;;6.70;5.13;;;13.30;99.90;;;;;;5032116;28;20037;-77
2022/06/01 05:10:33;;;;;;;6.80;5.28;;;13.30;99.90;;;;;;5031363;28;20048;-75
2022/06/01 05:12:58;;;;;;;6.53;4.10;;;13.40;99.90;;;;;;5021810;28;20026;-74
2022/06/01 05:15:24;;;;;;;4.93;4.43;;;13.40;99.90;;;;;;5045106;28;20486;-75
2022/06/01 05:17:50;;;;;;;5.82;4.38;;;13.40;99.90;;;;;;5021776;28;20025;-75
2022/06/01 05:20:15;;;;;;;6.15;4.72;;;13.40;99.90;;;;;;5022782;28;20030;-76
2022/06/01 05:22:41;;;;;;;10.02;4.20;;;13.40;99.90;;;;;;5027874;28;20029;-75
2022/06/01 05:25:08;;;;;;;7.28;5.13;;;13.40;99.90;;;;;;5025512;28;20048;-75
2022/06/01 05:27:34;;;;;;;5.32;4.82;;;13.40;99.90;;;;;;5021151;28;20041;-75
2022/06/01 05:30:01;;;;;;;6.18;5.05;;;13.40;99.90;;;;;;5018663;28;20040;-78
2022/06/01 05:32:27;;;;;;;6.28;5.25;;;13.40;99.90;;;;;;5023207;28;20022;-78
2022/06/01 05:34:53;;;;;;;6.05;5.45;;;13.50;99.90;;;;;;5024940;28;20044;-75
2022/06/01 05:37:19;;;;;;;7.43;6.45;;;13.50;99.90;;;;;;5014055;28;20030;-75
2022/06/01 05:39:44;;;;;;;7.60;6.07;;;13.50;99.90;;;;;;5017022;28;20163;-75
2022/06/01 05:42:11;;;;;;;6.97;5.80;;;13.60;99.90;;;;;;5014955;28;20089;-75
2022/06/01 05:44:37;;;;;;;6.82;5.85;;;13.70;99.90;;;;;;5032181;28;20025;-75
2022/06/01 05:47:03;;;;;;;7.55;6.35;;;13.70;99.90;;;;;;5031060;28;20033;-79
2022/06/01 05:49:29;;;;;;;7.25;5.82;;;13.80;99.90;;;;;;5032083;28;20389;-78
2022/06/01 05:51:55;;;;;;;7.43;6.20;;;13.90;99.90;;;;;;5030491;28;20022;-78
2022/06/01 05:54:21;;;;;;;10.68;7.72;;;13.90;99.90;;;;;;5031423;28;20109;-79
2022/06/01 05:56:46;;;;;;;10.32;6.65;;;14.00;99.90;;;;;;5030569;28;20049;-79
2022/06/01 05:59:13;;;;;;;8.30;7.18;;;14.00;99.90;;;;;;5029294;28;20017;-80
2022/06/01 06:01:39;;;;;;;7.35;6.38;;;14.00;99.90;;;;;;5029118;28;20026;-75
2022/06/01 06:04:05;;;;;;;8.50;6.68;;;14.00;99.90;;;;;;5029114;28;20036;-76
2022/06/01 06:06:31;;;;;;;7.13;5.53;;;14.00;99.90;;;;;;5014664;28;20074;-80
2022/06/01 06:09:00;;;;;;;10.15;7.20;;;14.00;99.90;;;;;;5010838;28;20034;-80
2022/06/01 06:11:28;;;;;;;8.63;7.03;;;14.10;99.90;;;;;;5012479;28;20053;-80
2022/06/01 06:13:54;;;;;;;10.00;6.43;;;14.00;99.90;;;;;;5011172;28;20451;-80
2022/06/01 06:16:20;;;;;;;7.93;6.03;;;14.00;99.90;;;;;;5012494;28;20025;-79
2022/06/01 06:18:46;;;;;;;11.15;6.18;;;14.00;99.90;;;;;;5012755;28;20486;-80
2022/06/01 06:21:12;;;;;;;8.00;5.85;;;14.00;99.90;;;;;;5023352;28;20029;-80
2022/06/01 06:23:38;;;;;;;9.23;5.18;;;14.00;99.90;;;;;;5032357;28;20022;-75
2022/06/01 06:26:05;;;;;;;11.32;6.68;;;14.10;99.90;;;;;;5032047;28;20064;-80
2022/06/01 06:28:31;;;;;;;7.95;4.93;;;14.10;99.90;;;;;;5030835;28;20041;-80
2022/06/01 06:30:57;;;;;;;6.70;5.72;;;14.10;99.90;;;;;;5032008;28;20113;-76
2022/06/01 06:33:22;;;;;;;8.10;4.93;;;14.10;99.90;;;;;;5027657;28;20147;-82
2022/06/01 06:36:00;;;;;;;7.43;6.18;;;14.10;99.90;;;;;;5023939;28;20061;-75
2022/06/01 06:38:27;;;;;;;6.05;5.35;;;14.10;99.90;;;;;;5030233;28;20418;-75
2022/06/01 06:40:54;;;;;;;7.53;5.25;;;14.10;99.90;;;;;;5030240;28;20026;-80
2022/06/01 06:43:21;;;;;;;7.25;5.63;;;14.10;99.90;;;;;;5030923;28;20489;-76
2022/06/01 06:45:58;;;;;;;5.68;5.07;;;14.00;99.90;;;;;;5031990;28;20117;-80
2022/06/01 06:48:23;;;;;;;6.68;5.15;;;13.90;99.90;;;;;;5030314;28;20546;-75
2022/06/01 06:50:49;;;;;;;7.00;5.32;;;13.80;99.90;;;;;;5030559;28;20025;-80
2022/06/01 06:53:16;;;;;;;7.70;5.80;;;13.90;99.90;;;;;;5030453;28;20390;-80
2022/06/01 06:55:41;;;;;;;6.20;5.20;;;13.90;99.90;;;;;;5030706;28;20029;-80
2022/06/01 06:58:09;;;;;;;7.25;5.57;;;13.90;99.90;;;;;;5030632;28;20045;-80
2022/06/01 07:00:35;;;;;;;6.47;5.32;;;13.90;99.90;;;;;;5031711;28;20505;-80
2022/06/01 07:03:00;;;;;;;6.43;5.82;;;14.00;99.90;;;;;;5030554;28;20018;-80
2022/06/01 07:08:10;;;;;;;6.45;5.72;;;14.10;99.90;;;;;;5012002;28;20534;-80
2022/06/01 07:10:35;;;;;;;12.38;7.20;;;14.20;99.90;;;;;;5011964;28;20014;-76
2022/06/01 07:13:01;;;;;;;10.65;7.13;;;14.20;99.90;;;;;;5011956;28;20026;-76
2022/06/01 07:15:26;;;;;;;12.15;7.13;;;14.20;99.90;;;;;;5010729;28;20025;-76
2022/06/01 07:17:52;;;;;;;12.15;8.07;;;14.20;99.90;;;;;;5011842;28;20026;-80
2022/06/01 07:20:18;;;;;;;12.25;7.05;;;14.20;99.90;;;;;;5015740;28;20467;-80
2022/06/01 07:22:44;;;;;;;10.82;7.82;;;14.30;99.90;;;;;;5030223;28;20057;-80
2022/06/01 07:25:10;;;;;;;9.65;6.85;;;14.40;99.90;;;;;;5030137;28;20026;-80
2022/06/01 07:27:36;;;;;;;8.35;6.68;;;14.50;99.90;;;;;;5031469;28;20050;-80
2022/06/01 07:30:04;;;;;;;9.82;6.40;;;14.50;99.90;;;;;;5031282;28;20491;-76
2022/06/01 07:32:30;;;;;;;8.35;6.25;;;14.60;99.90;;;;;;5031138;28;20045;-80
2022/06/01 07:34:55;;;;;;;8.38;6.18;;;14.70;99.90;;;;;;5031314;28;20029;-76
2022/06/01 07:43:06;;;;;;;8.32;5.00;;;15.00;99.90;;;;;;5031268;28;20051;-76
2022/06/01 07:45:39;;;;;;;5.68;4.10;;;15.20;99.90;;;;;;5031251;28;20040;-81
2022/06/01 07:48:07;;;;;;;5.18;4.55;;;15.30;99.90;;;;;;5030883;28;20077;-75
2022/06/01 07:50:34;;;;;;;6.05;3.42;;;15.50;99.90;;;;;;5031058;28;20439;-80
2022/06/01 07:53:01;;;;;;;4.70;4.05;;;15.60;99.90;;;;;;5029744;28;20094;-80
2022/06/01 07:55:28;;;;;;;8.40;3.83;;;15.80;99.90;;;;;;5031057;28;20040;-80
2022/06/01 07:57:53;;;;;;;8.05;4.47;;;15.90;99.90;;;;;;5030906;28;20025;-78
2022/06/01 08:00:20;;;;;;;3.63;3.30;;;16.10;99.90;;;;;;5030786;28;20063;-77
2022/06/01 08:02:46;;;;;;;3.70;3.40;;;16.30;99.90;;;;;;5030902;28;20092;-82
2022/06/01 08:05:14;;;;;;;3.33;3.03;;;16.60;99.90;;;;;;5030832;28;20042;-83
2022/06/01 08:07:41;;;;;;;4.55;3.60;;;17.00;99.90;;;;;;5030684;28;20034;-78
2022/06/01 08:10:07;;;;;;;5.38;3.17;;;17.40;99.90;;;;;;5029379;28;20021;-79
2022/06/01 08:15:18;;;;;;;5.60;2.85;;;17.90;99.90;;;;;;5031015;28;20047;-78
2022/06/01 08:17:46;;;;;;;2.42;2.22;;;18.20;99.90;;;;;;5030788;28;20033;-78
2022/06/01 08:20:12;;;;;;;2.45;2.25;;;18.60;99.90;;;;;;5024974;28;20014;-82
2022/06/01 08:22:39;;;;;;;2.78;2.58;;;18.80;95.60;;;;;;5010836;28;20052;-82
2022/06/01 08:25:06;;;;;;;3.25;1.90;;;18.90;96.20;;;;;;5010749;28;20048;-82
2022/06/01 08:27:31;;;;;;;2.25;2.03;;;18.90;89.70;;;;;;5010883;28;20057;-82
2022/06/01 08:29:57;;;;;;;2.42;2.10;;;19.30;93.00;;;;;;5009447;28;20034;-78
2022/06/01 08:32:23;;;;;;;2.13;1.98;;;19.30;85.60;;;;;;5008529;28;20018;-78
2022/06/01 08:34:48;;;;;;;2.88;2.63;;;19.30;81.20;;;;;;5009472;28;20022;-82
2022/06/01 08:37:14;;;;;;;2.17;1.98;;;19.50;82.40;;;;;;5010838;28;20018;-82
2022/06/01 08:39:39;;;;;;;2.63;2.42;;;19.70;85.80;;;;;;5010605;28;20022;-81
2022/06/01 08:42:08;;;;;;;3.65;2.85;;;19.80;85.60;;;;;;5010668;28;20029;-77
2022/06/01 08:44:37;;;;;;;4.22;2.30;;;19.90;84.70;;;;;;5010636;28;20050;-75
2022/06/01 08:47:15;;;;;;;2.25;2.10;;;19.80;80.30;;;;;;5009152;28;20018;-80
2022/06/01 08:49:41;;;;;;;3.28;2.25;;;20.00;82.90;;;;;;5010634;28;20022;-75
2022/06/01 08:52:07;;;;;;;2.78;2.55;;;20.10;84.50;;;;;;5010430;28;20030;-80
2022/06/01 08:54:33;;;;;;;2.58;2.38;;;19.80;82.60;;;;;;5010463;28;20082;-80
2022/06/01 08:57:04;;;;;;;2.17;1.83;;;19.40;82.20;;;;;;5010623;28;20409;-75
2022/06/01 08:59:58;;;;;;;1.90;1.70;;;19.40;81.90;;;;;;5010460;28;20033;-82
2022/06/01 09:02:48;;;;;;;2.30;2.10;;;19.20;78.80;;;;;;5010363;28;20036;-82
2022/06/01 09:05:26;;;;;;;1.90;1.80;;;19.10;79.00;;;;;;5016902;28;20089;-83
2022/06/01 09:08:05;;;;;;;2.15;1.77;;;19.20;77.40;;;;;;5028615;28;20394;-78
2022/06/01 09:10:40;;;;;;;2.22;1.70;;;19.30;77.80;;;;;;5030012;28;20082;-80
2022/06/01 09:13:14;;;;;;;2.13;1.73;;;19.30;78.40;;;;;;5028670;28;20057;-83
2022/06/01 09:15:50;;;;;;;1.70;1.60;;;19.10;77.70;;;;;;5030138;28;20025;-82
2022/06/01 09:18:20;;;;;;;2.47;1.80;;;19.00;77.80;;;;;;5030050;28;20017;-83
2022/06/01 09:23:30;;;;;;;1.77;1.67;;;19.50;77.90;;;;;;5009785;28;20048;-83
2022/06/01 09:25:57;;;;;;;1.77;1.67;;;19.80;75.70;;;;;;5009969;28;20433;-78
2022/06/01 09:28:26;;;;;;;2.63;1.55;;;20.20;74.80;;;;;;5008677;28;20128;-83
2022/06/01 09:30:59;;;;;;;2.97;1.90;;;20.50;72.00;;;;;;5009939;28;20022;-76
2022/06/01 09:33:40;;;;;;;2.92;1.90;;;20.40;68.70;;;;;;5008678;28;20026;-76
2022/06/01 09:36:08;;;;;;;3.38;2.05;;;20.50;68.20;;;;;;5009963;28;20030;-76
2022/06/01 09:38:51;;;;;;;2.55;2.35;;;21.00;68.20;;;;;;5010041;28;20047;-75
2022/06/01 09:41:21;;;;;;;2.83;2.35;;;21.00;67.30;;;;;;5009894;28;20026;-81
2022/06/01 09:44:00;;;;;;;3.85;2.33;;;21.20;66.70;;;;;;5010612;28;20505;-81
2022/06/01 09:46:47;;;;;;;2.75;2.55;;;21.00;64.30;;;;;;5013561;28;20046;-80
2022/06/01 09:49:31;;;;;;;3.45;3.15;;;21.20;64.80;;;;;;5013417;28;20061;-75
2022/06/01 09:52:13;;;;;;;6.03;3.22;;;21.40;61.10;;;;;;5011960;28;20022;-75
2022/06/01 09:54:51;;;;;;;2.75;2.55;;;21.70;63.80;;;;;;5013046;28;20093;-81
2022/06/01 09:57:27;;;;;;;5.32;2.92;;;21.90;62.00;;;;;;5013381;28;20026;-75
2022/06/01 10:08:28;;;;;;;6.18;4.07;;;21.50;59.20;;;;;;5032800;28;20456;-80
2022/06/01 10:11:02;;;;;;;9.80;4.93;;;21.40;60.90;;;;;;5032650;28;20032;-80
2022/06/01 10:13:47;;;;;;;6.32;4.63;;;21.70;62.80;;;;;;5032586;28;20026;-76
2022/06/01 10:16:19;;;;;;;8.50;4.00;;;21.70;63.30;;;;;;5032609;28;20018;-75
2022/06/01 10:18:46;;;;;;;7.30;3.80;;;21.70;62.90;;;;;;5032420;28;20028;-81
2022/06/01 10:21:16;;;;;;;4.57;2.75;;;21.60;60.70;;;;;;5017965;28;20414;-75
2022/06/01 10:23:52;;;;;;;3.70;2.70;;;21.40;59.90;;;;;;5012711;28;20030;-80
2022/06/01 10:26:23;;;;;;;4.38;2.65;;;21.70;60.80;;;;;;5011467;28;20079;-75
2022/06/01 10:28:54;;;;;;;4.80;3.05;;;21.90;54.70;;;;;;5011330;28;20073;-81
2022/06/01 10:31:39;;;;;;;4.57;2.97;;;22.20;57.00;;;;;;5012606;28;20032;-75
2022/06/01 10:34:11;;;;;;;3.35;2.92;;;22.60;55.90;;;;;;5012428;28;20022;-80
2022/06/01 10:36:42;;;;;;;3.28;2.72;;;22.90;56.70;;;;;;5011423;28;20539;-80
2022/06/01 10:39:24;;;;;;;4.70;3.60;;;22.80;55.50;;;;;;5011271;28;20072;-80
2022/06/01 10:42:07;;;;;;;3.85;2.47;;;22.70;56.30;;;;;;5012319;28;20768;-81
2022/06/01 10:44:57;;;;;;;3.00;2.58;;;22.50;56.60;;;;;;5012346;28;20108;-81
2022/06/01 10:47:56;;;;;;;3.97;2.45;;;22.30;54.40;;;;;;5012474;28;20034;-81
2022/06/01 10:50:32;;;;;;;5.47;3.05;;;22.10;55.20;;;;;;5027730;28;20041;-75
2022/06/01 10:53:42;;;;;;;3.92;2.95;;;21.70;56.60;;;;;;5012323;28;20018;-81
2022/06/01 10:56:09;;;;;;;4.65;2.70;;;21.40;57.00;;;;;;5015712;28;20038;-81
2022/06/01 10:58:35;;;;;;;2.90;2.53;;;21.50;58.50;;;;;;5012285;28;20022;-76
2022/06/01 11:01:07;;;;;;;3.97;2.55;;;21.30;58.40;;;;;;5011916;28;20026;-76
2022/06/01 11:04:24;;;;;;;3.70;2.30;;;21.50;57.70;;;;;;5010896;28;20014;-75
2022/06/01 11:07:12;;;;;;;5.93;3.60;;;21.70;57.10;;;;;;5016147;28;20402;-75
2022/06/01 11:09:55;;;;;;;5.90;3.15;;;22.00;57.30;;;;;;5003999;28;20042;-81
2022/06/01 11:12:55;;;;;;;5.97;2.88;;;22.10;54.20;;;;;;5010821;28;20422;-76
2022/06/01 11:15:54;;;;;;;6.13;3.10;;;22.40;52.60;;;;;;5010571;28;20048;-76
2022/06/01 11:18:34;;;;;;;4.28;3.88;;;22.30;54.90;;;;;;5014432;28;20083;-81
2022/06/01 11:21:07;;;;;;;4.78;3.30;;;21.90;51.20;;;;;;5021912;28;20390;-81
2022/06/01 11:23:44;;;;;;;8.52;4.78;;;21.70;51.60;;;;;;5031427;28;20026;-81
2022/06/01 11:26:16;;;;;;;8.63;4.50;;;21.90;53.40;;;;;;5031276;28;20052;-81
2022/06/01 11:29:19;;;;;;;6.47;3.73;;;22.20;53.80;;;;;;5031620;28;20083;-81
2022/06/01 11:31:49;;;;;;;7.22;4.20;;;22.80;53.30;;;;;;5029917;28;20284;-76
2022/06/01 11:34:31;;;;;;;12.50;4.45;;;22.70;51.90;;;;;;5046770;28;20045;-76
2022/06/01 11:37:09;;;;;;;6.30;3.28;;;22.70;52.50;;;;;;5031506;28;20086;-81
2022/06/01 11:39:43;;;;;;;3.00;2.55;;;23.00;52.90;;;;;;5031158;28;20021;-81
2022/06/01 11:42:22;;;;;;;6.72;3.33;;;23.00;50.50;;;;;;5031228;28;20056;-77
2022/06/01 11:45:02;;;;;;;9.85;3.53;;;22.80;49.40;;;;;;5029884;28;20014;-81
2022/06/01 11:47:35;;;;;;;4.43;2.70;;;22.80;50.90;;;;;;5046506;28;20037;-76
2022/06/01 11:50:24;;;;;;;3.88;2.58;;;22.80;50.90;;;;;;5027242;28;20092;-82
2022/06/01 11:52:56;;;;;;;2.58;1.90;;;23.10;51.10;;;;;;5021532;28;20076;-76
2022/06/01 11:55:33;;;;;;;3.65;2.42;;;23.10;50.10;;;;;;5025055;28;20360;-81
2022/06/01 11:58:10;;;;;;;7.15;3.15;;;23.00;50.00;;;;;;5024805;28;20117;-81
2022/06/01 12:00:48;;;;;;;3.10;2.80;;;22.70;48.40;;;;;;5016510;28;20033;-76
2022/06/01 12:03:25;;;;;;;5.45;2.83;;;22.20;48.90;;;;;;5010311;28;20146;-75
2022/06/01 12:06:02;;;;;;;3.45;1.80;;;21.80;49.30;;;;;;5023234;28;20501;-75
2022/06/01 12:08:53;;;;;;;2.53;2.33;;;21.40;48.10;;;;;;5013139;28;20049;-81
2022/06/01 12:11:42;;;;;;;4.65;2.25;;;21.10;49.20;;;;;;5008053;28;20018;-81
2022/06/01 12:14:32;;;;;;;2.50;1.58;;;21.00;51.60;;;;;;5025557;28;20049;-81
2022/06/01 12:17:16;;;;;;;3.45;1.45;;;20.80;49.70;;;;;;5017176;28;20034;-81
2022/06/01 12:19:47;;;;;;;1.45;1.20;;;20.60;49.10;;;;;;5009858;28;20372;-80
2022/06/01 12:28:54;;;;;;;4.57;1.88;;;20.80;49.20;;;;;;5022486;28;20096;-80
2022/06/01 12:31:24;;;;;;;3.00;1.63;;;21.30;48.40;;;;;;5018506;28;20470;-80
2022/06/01 12:34:04;;;;;;;2.78;1.50;;;21.80;48.60;;;;;;5015859;28;20034;-80
2022/06/01 12:36:57;;;;;;;1.17;1.05;;;22.10;45.70;;;;;;5016532;28;20083;-79
2022/06/01 12:39:37;;;;;;;2.60;1.35;;;22.40;44.50;;;;;;5007918;28;20087;-79
2022/06/01 12:42:11;;;;;;;1.85;0.98;;;22.30;44.10;;;;;;5022350;28;20134;-79
2022/06/01 12:44:39;;;;;;;2.17;1.30;;;22.20;43.70;;;;;;5029931;28;20034;-80
2022/06/01 12:47:06;;;;;;;4.22;1.77;;;22.30;43.40;;;;;;5023249;28;20475;-80
2022/06/01 12:49:40;;;;;;;1.25;1.10;;;22.50;42.60;;;;;;5021585;28;20037;-79
2022/06/01 12:52:12;;;;;;;1.95;1.58;;;22.60;43.30;;;;;;5023735;28;20037;-79
2022/06/01 12:54:42;;;;;;;3.22;1.42;;;22.50;42.70;;;;;;5016163;28;20053;-79
2022/06/01 12:57:12;;;;;;;4.43;1.80;;;22.40;41.80;;;;;;5017066;28;20024;-79
2022/06/01 12:59:41;;;;;;;3.38;2.25;;;22.70;44.20;;;;;;5019958;28;20083;-79
2022/06/01 13:02:10;;;;;;;5.38;2.08;;;22.90;43.60;;;;;;5021256;28;20022;-79
2022/06/01 13:04:37;;;;;;;6.68;1.60;;;23.00;42.70;;;;;;5018915;28;20045;-79
2022/06/01 13:07:05;;;;;;;3.33;1.38;;;23.00;43.40;;;;;;5062372;28;20498;-80
2022/06/01 13:09:33;;;;;;;3.22;1.60;;;23.10;44.00;;;;;;5014569;28;20030;-75
2022/06/01 13:12:05;;;;;;;1.45;1.35;;;23.10;42.80;;;;;;5023947;28;20026;-75
2022/06/01 13:14:34;;;;;;;1.50;1.20;;;23.10;42.50;;;;;;5019219;28;20050;-75
2022/06/01 13:17:08;;;;;;;2.53;1.40;;;23.30;45.10;;;;;;5019528;28;20040;-75
2022/06/01 13:19:34;;;;;;;1.40;1.30;;;23.30;43.00;;;;;;5031521;28;20025;-80
2022/06/01 13:22:08;;;;;;;2.20;1.27;;;23.70;43.30;;;;;;5012219;28;20026;-77
2022/06/01 13:24:42;;;;;;;3.60;1.67;;;23.60;44.30;;;;;;5013397;28;20026;-75
2022/06/01 13:27:08;;;;;;;1.95;1.20;;;23.80;44.60;;;;;;5010724;28;20096;-75
2022/06/01 13:29:44;;;;;;;4.38;1.65;;;24.00;44.90;;;;;;5012738;28;20143;-76
2022/06/01 13:32:12;;;;;;;2.13;1.40;;;24.20;44.30;;;;;;5013243;28;20026;-80
2022/06/01 13:34:48;;;;;;;2.97;1.77;;;23.90;43.60;;;;;;5012200;28;20110;-76
2022/06/01 13:37:17;;;;;;;3.05;1.65;;;23.50;42.90;;;;;;5012234;28;20390;-79